sensor_id;sensor_type;location;lat;lon;timestamp;pressure;altitude;pressure_sealevel;temperature;humidity
19748;BME280;10032;51.386;12.516;2023-03-13T00:00:29;99414.03;;;8.05;100.00
19748;BME280;10032;51.386;12.516;2023-03-13T00:02:55;99419.44;;;8.05;100.00
19748;BME280;10032;51.386;12.516;2023-03-13T00:05:20;99410.03;;;8.08;100.00
19748;BME280;10032;51.386;12.516;2023-03-13T00:07:45;99404.06;;;8.06;100.00
19748;BME280;10032;51.386;12.516;2023-03-13T00:10:11;99417.78;;;8.04;100.00
19748;BME280;10032;51.386;12.516;2023-03-13T00:12:36;99420.25;;;8.06;100.00
19748;BME280;10032;51.386;12.516;2023-03-13T00:15:02;99398.91;;;8.04;100.00
19748;BME280;10032;51.386;12.516;2023-03-13T00:17:27;99409.97;;;8.03;100.00
19748;BME280;10032;51.386;12.516;2023-03-13T00:19:53;99410.22;;;8.01;100.00
19748;BME280;10032;51.386;12.516;2023-03-13T00:22:20;99404.31;;;8.04;100.00
19748;BME280;10032;51.386;12.516;2023-03-13T00:24:45;99405.63;;;8.02;100.00
19748;BME280;10032;51.386;12.516;2023-03-13T00:27:11;99392.41;;;8.00;100.00
19748;BME280;10032;51.386;12.516;2023-03-13T00:29:36;99392.34;;;7.95;100.00
19748;BME280;10032;51.386;12.516;2023-03-13T00:32:02;99396.34;;;7.93;100.00
19748;BME280;10032;51.386;12.516;2023-03-13T00:34:27;99399.28;;;7.91;100.00
19748;BME280;10032;51.386;12.516;2023-03-13T00:36:53;99392.22;;;7.85;100.00
19748;BME280;10032;51.386;12.516;2023-03-13T00:39:20;99393.00;;;7.86;100.00
19748;BME280;10032;51.386;12.516;2023-03-13T00:41:46;99393.84;;;7.86;100.00
19748;BME280;10032;51.386;12.516;2023-03-13T00:44:12;99394.38;;;7.88;100.00
19748;BME280;10032;51.386;12.516;2023-03-13T00:46:37;99392.59;;;7.94;100.00
19748;BME280;10032;51.386;12.516;2023-03-13T00:49:03;99385.94;;;8.01;100.00
19748;BME280;10032;51.386;12.516;2023-03-13T00:51:29;99384.16;;;8.12;100.00
19748;BME280;10032;51.386;12.516;2023-03-13T00:53:56;99386.13;;;8.16;100.00
19748;BME280;10032;51.386;12.516;2023-03-13T00:56:24;99385.13;;;8.22;100.00
19748;BME280;10032;51.386;12.516;2023-03-13T00:58:49;99394.91;;;8.28;100.00
19748;BME280;10032;51.386;12.516;2023-03-13T01:01:21;99390.13;;;8.35;100.00
19748;BME280;10032;51.386;12.516;2023-03-13T01:03:49;99382.91;;;8.41;100.00
19748;BME280;10032;51.386;12.516;2023-03-13T01:06:18;99380.50;;;8.44;100.00
19748;BME280;10032;51.386;12.516;2023-03-13T01:08:45;99378.94;;;8.48;100.00
19748;BME280;10032;51.386;12.516;2023-03-13T01:11:22;99375.16;;;8.49;100.00
19748;BME280;10032;51.386;12.516;2023-03-13T01:13:48;99368.69;;;8.50;100.00
19748;BME280;10032;51.386;12.516;2023-03-13T01:16:19;99373.31;;;8.55;100.00
19748;BME280;10032;51.386;12.516;2023-03-13T01:18:49;99361.19;;;8.57;100.00
19748;BME280;10032;51.386;12.516;2023-03-13T01:21:16;99363.38;;;8.60;100.00
19748;BME280;10032;51.386;12.516;2023-03-13T01:23:44;99364.75;;;8.63;100.00
19748;BME280;10032;51.386;12.516;2023-03-13T01:26:09;99362.66;;;8.70;100.00
19748;BME280;10032;51.386;12.516;2023-03-13T01:28:35;99353.22;;;8.72;100.00
19748;BME280;10032;51.386;12.516;2023-03-13T01:31:10;99349.16;;;8.70;100.00
19748;BME280;10032;51.386;12.516;2023-03-13T01:33:35;99345.72;;;8.74;100.00
19748;BME280;10032;51.386;12.516;2023-03-13T01:36:01;99342.47;;;8.77;100.00
19748;BME280;10032;51.386;12.516;2023-03-13T01:38:27;99342.78;;;8.81;100.00
19748;BME280;10032;51.386;12.516;2023-03-13T01:40:53;99340.91;;;8.81;100.00
19748;BME280;10032;51.386;12.516;2023-03-13T01:45:51;99333.63;;;8.82;100.00
19748;BME280;10032;51.386;12.516;2023-03-13T01:48:20;99325.22;;;8.83;100.00
19748;BME280;10032;51.386;12.516;2023-03-13T01:50:46;99323.38;;;8.84;100.00
19748;BME280;10032;51.386;12.516;2023-03-13T01:53:12;99328.47;;;8.80;100.00
19748;BME280;10032;51.386;12.516;2023-03-13T01:55:37;99323.31;;;8.79;100.00
19748;BME280;10032;51.386;12.516;2023-03-13T01:58:03;99327.91;;;8.78;100.00
19748;BME280;10032;51.386;12.516;2023-03-13T02:00:31;99324.41;;;8.78;100.00
19748;BME280;10032;51.386;12.516;2023-03-13T02:03:02;99309.00;;;8.78;100.00
19748;BME280;10032;51.386;12.516;2023-03-13T02:05:29;99315.75;;;8.81;100.00
19748;BME280;10032;51.386;12.516;2023-03-13T02:08:07;99307.94;;;8.79;100.00
19748;BME280;10032;51.386;12.516;2023-03-13T02:10:39;99293.63;;;8.79;100.00
19748;BME280;10032;51.386;12.516;2023-03-13T02:13:06;99307.38;;;8.77;100.00
19748;BME280;10032;51.386;12.516;2023-03-13T02:15:33;99318.16;;;8.77;100.00
19748;BME280;10032;51.386;12.516;2023-03-13T02:17:59;99317.09;;;8.78;100.00
19748;BME280;10032;51.386;12.516;2023-03-13T02:20:25;99309.81;;;8.79;100.00
19748;BME280;10032;51.386;12.516;2023-03-13T02:23:12;99314.38;;;8.78;100.00
19748;BME280;10032;51.386;12.516;2023-03-13T02:25:42;99301.47;;;8.80;100.00
19748;BME280;10032;51.386;12.516;2023-03-13T02:28:56;99289.03;;;8.79;100.00
19748;BME280;10032;51.386;12.516;2023-03-13T02:30:58;99287.97;;;8.80;100.00
19748;BME280;10032;51.386;12.516;2023-03-13T02:33:27;99287.72;;;8.82;100.00
19748;BME280;10032;51.386;12.516;2023-03-13T02:35:54;99281.22;;;8.83;100.00
19748;BME280;10032;51.386;12.516;2023-03-13T02:38:23;99272.88;;;8.84;100.00
19748;BME280;10032;51.386;12.516;2023-03-13T02:40:51;99270.72;;;8.86;100.00
19748;BME280;10032;51.386;12.516;2023-03-13T02:43:23;99262.09;;;8.89;100.00
19748;BME280;10032;51.386;12.516;2023-03-13T02:48:40;99251.03;;;8.96;100.00
19748;BME280;10032;51.386;12.516;2023-03-13T02:53:37;99245.72;;;9.06;100.00
19748;BME280;10032;51.386;12.516;2023-03-13T02:56:03;99249.53;;;9.10;100.00
19748;BME280;10032;51.386;12.516;2023-03-13T02:58:37;99243.84;;;9.11;100.00
19748;BME280;10032;51.386;12.516;2023-03-13T03:01:02;99226.03;;;9.15;100.00
19748;BME280;10032;51.386;12.516;2023-03-13T03:03:33;99227.69;;;9.21;100.00
19748;BME280;10032;51.386;12.516;2023-03-13T03:05:59;99222.28;;;9.21;100.00
19748;BME280;10032;51.386;12.516;2023-03-13T03:08:24;99229.31;;;9.22;100.00
19748;BME280;10032;51.386;12.516;2023-03-13T03:10:50;99226.06;;;9.20;100.00
19748;BME280;10032;51.386;12.516;2023-03-13T03:13:15;99219.31;;;9.23;100.00
19748;BME280;10032;51.386;12.516;2023-03-13T03:15:41;99210.16;;;9.24;100.00
19748;BME280;10032;51.386;12.516;2023-03-13T03:18:06;99200.13;;;9.24;100.00
19748;BME280;10032;51.386;12.516;2023-03-13T03:20:31;99200.13;;;9.24;100.00
19748;BME280;10032;51.386;12.516;2023-03-13T03:22:57;99200.38;;;9.23;100.00
19748;BME280;10032;51.386;12.516;2023-03-13T03:25:22;99197.16;;;9.21;100.00
19748;BME280;10032;51.386;12.516;2023-03-13T03:27:48;99194.72;;;9.24;100.00
19748;BME280;10032;51.386;12.516;2023-03-13T03:30:14;99189.31;;;9.24;100.00
19748;BME280;10032;51.386;12.516;2023-03-13T03:32:39;99176.06;;;9.23;100.00
19748;BME280;10032;51.386;12.516;2023-03-13T03:35:05;99176.34;;;9.21;100.00
19748;BME280;10032;51.386;12.516;2023-03-13T03:37:31;99172.56;;;9.22;100.00
19748;BME280;10032;51.386;12.516;2023-03-13T03:39:56;99164.47;;;9.22;100.00
19748;BME280;10032;51.386;12.516;2023-03-13T03:42:22;99172.31;;;9.24;100.00
19748;BME280;10032;51.386;12.516;2023-03-13T03:44:47;99170.97;;;9.26;100.00
19748;BME280;10032;51.386;12.516;2023-03-13T03:47:13;99155.81;;;9.25;100.00
19748;BME280;10032;51.386;12.516;2023-03-13T03:49:38;99158.50;;;9.25;100.00
19748;BME280;10032;51.386;12.516;2023-03-13T03:52:04;99149.34;;;9.26;100.00
19748;BME280;10032;51.386;12.516;2023-03-13T03:54:30;99150.97;;;9.27;100.00
19748;BME280;10032;51.386;12.516;2023-03-13T03:56:55;99150.97;;;9.27;100.00
19748;BME280;10032;51.386;12.516;2023-03-13T03:59:21;99143.66;;;9.28;100.00
19748;BME280;10032;51.386;12.516;2023-03-13T04:01:46;99128.81;;;9.30;100.00
19748;BME280;10032;51.386;12.516;2023-03-13T04:04:12;99133.66;;;9.28;100.00
19748;BME280;10032;51.386;12.516;2023-03-13T04:06:37;99130.44;;;9.26;100.00
19748;BME280;10032;51.386;12.516;2023-03-13T04:09:02;99128.25;;;9.28;100.00
19748;BME280;10032;51.386;12.516;2023-03-13T04:11:29;99130.41;;;9.31;100.00
19748;BME280;10032;51.386;12.516;2023-03-13T04:13:54;99126.09;;;9.30;100.00
19748;BME280;10032;51.386;12.516;2023-03-13T04:16:20;99118.81;;;9.31;100.00
19748;BME280;10032;51.386;12.516;2023-03-13T04:18:45;99113.16;;;9.32;100.00
19748;BME280;10032;51.386;12.516;2023-03-13T04:21:11;99101.78;;;9.30;100.00
19748;BME280;10032;51.386;12.516;2023-03-13T04:23:36;99107.19;;;9.35;100.00
19748;BME280;10032;51.386;12.516;2023-03-13T04:26:01;99095.84;;;9.33;100.00
19748;BME280;10032;51.386;12.516;2023-03-13T04:28:27;99087.19;;;9.36;100.00
19748;BME280;10032;51.386;12.516;2023-03-13T04:30:52;99082.06;;;9.35;100.00
19748;BME280;10032;51.386;12.516;2023-03-13T04:33:22;99084.47;;;9.36;100.00
19748;BME280;10032;51.386;12.516;2023-03-13T04:35:47;99076.38;;;9.41;100.00
19748;BME280;10032;51.386;12.516;2023-03-13T04:38:13;99074.25;;;9.43;100.00
19748;BME280;10032;51.386;12.516;2023-03-13T04:40:38;99070.44;;;9.44;100.00
19748;BME280;10032;51.386;12.516;2023-03-13T04:43:04;99055.31;;;9.48;100.00
19748;BME280;10032;51.386;12.516;2023-03-13T04:45:29;99048.56;;;9.51;100.00
19748;BME280;10032;51.386;12.516;2023-03-13T04:47:54;99042.88;;;9.52;100.00
19748;BME280;10032;51.386;12.516;2023-03-13T04:50:20;99045.56;;;9.57;100.00
19748;BME280;10032;51.386;12.516;2023-03-13T04:52:45;99041.00;;;9.58;100.00
19748;BME280;10032;51.386;12.516;2023-03-13T04:55:11;99036.41;;;9.58;100.00
19748;BME280;10032;51.386;12.516;2023-03-13T04:57:36;99033.72;;;9.58;100.00
19748;BME280;10032;51.386;12.516;2023-03-13T05:00:03;99037.19;;;9.59;100.00
19748;BME280;10032;51.386;12.516;2023-03-13T05:02:32;99035.84;;;9.61;100.00
19748;BME280;10032;51.386;12.516;2023-03-13T05:04:57;99022.88;;;9.63;100.00
19748;BME280;10032;51.386;12.516;2023-03-13T05:07:22;99018.53;;;9.62;100.00
19748;BME280;10032;51.386;12.516;2023-03-13T05:09:48;99011.00;;;9.64;100.00
19748;BME280;10032;51.386;12.516;2023-03-13T05:12:13;99007.19;;;9.60;100.00
19748;BME280;10032;51.386;12.516;2023-03-13T05:14:39;99003.41;;;9.61;100.00
19748;BME280;10032;51.386;12.516;2023-03-13T05:17:04;99004.22;;;9.62;100.00
19748;BME280;10032;51.386;12.516;2023-03-13T05:19:30;99000.44;;;9.63;100.00
19748;BME280;10032;51.386;12.516;2023-03-13T05:21:55;98986.38;;;9.66;100.00
19748;BME280;10032;51.386;12.516;2023-03-13T05:24:20;98985.56;;;9.65;100.00
19748;BME280;10032;51.386;12.516;2023-03-13T05:26:46;98972.03;;;9.65;100.00
19748;BME280;10032;51.386;12.516;2023-03-13T05:29:11;98967.16;;;9.67;100.00
19748;BME280;10032;51.386;12.516;2023-03-13T05:31:36;98962.56;;;9.68;100.00
19748;BME280;10032;51.386;12.516;2023-03-13T05:34:02;98957.97;;;9.68;100.00
19748;BME280;10032;51.386;12.516;2023-03-13T05:36:27;98950.13;;;9.67;100.00
19748;BME280;10032;51.386;12.516;2023-03-13T05:38:53;98949.06;;;9.68;100.00
19748;BME280;10032;51.386;12.516;2023-03-13T05:41:18;98947.69;;;9.65;100.00
19748;BME280;10032;51.386;12.516;2023-03-13T05:43:43;98935.78;;;9.66;100.00
19748;BME280;10032;51.386;12.516;2023-03-13T05:46:09;98937.16;;;9.69;100.00
19748;BME280;10032;51.386;12.516;2023-03-13T05:48:34;98930.91;;;9.68;100.00
19748;BME280;10032;51.386;12.516;2023-03-13T05:51:00;98917.13;;;9.70;100.00
19748;BME280;10032;51.386;12.516;2023-03-13T05:53:25;98906.03;;;9.71;100.00
19748;BME280;10032;51.386;12.516;2023-03-13T05:55:51;98905.78;;;9.73;100.00
19748;BME280;10032;51.386;12.516;2023-03-13T05:58:16;98897.66;;;9.73;100.00
19748;BME280;10032;51.386;12.516;2023-03-13T06:00:41;98893.03;;;9.78;100.00
19748;BME280;10032;51.386;12.516;2023-03-13T06:03:08;98889.25;;;9.79;100.00
19748;BME280;10032;51.386;12.516;2023-03-13T06:05:34;98881.69;;;9.81;100.00
19748;BME280;10032;51.386;12.516;2023-03-13T06:08:00;98879.78;;;9.82;100.00
19748;BME280;10032;51.386;12.516;2023-03-13T06:10:27;98870.59;;;9.83;100.00
19748;BME280;10032;51.386;12.516;2023-03-13T06:12:54;98869.22;;;9.85;100.00
19748;BME280;10032;51.386;12.516;2023-03-13T06:15:20;98863.81;;;9.85;100.00
19748;BME280;10032;51.386;12.516;2023-03-13T06:17:46;98855.97;;;9.84;100.00
19748;BME280;10032;51.386;12.516;2023-03-13T06:20:11;98848.69;;;9.84;100.00
19748;BME280;10032;51.386;12.516;2023-03-13T06:22:37;98853.25;;;9.84;100.00
19748;BME280;10032;51.386;12.516;2023-03-13T06:25:03;98851.66;;;9.83;100.00
19748;BME280;10032;51.386;12.516;2023-03-13T06:27:28;98849.75;;;9.78;100.00
19748;BME280;10032;51.386;12.516;2023-03-13T06:29:54;98846.25;;;9.78;100.00
19748;BME280;10032;51.386;12.516;2023-03-13T06:32:19;98847.34;;;9.77;100.00
19748;BME280;10032;51.386;12.516;2023-03-13T06:34:44;98847.06;;;9.73;100.00
19748;BME280;10032;51.386;12.516;2023-03-13T06:37:10;98828.16;;;9.68;100.00
19748;BME280;10032;51.386;12.516;2023-03-13T06:39:35;98836.00;;;9.70;100.00
19748;BME280;10032;51.386;12.516;2023-03-13T06:42:01;98834.91;;;9.71;100.00
19748;BME280;10032;51.386;12.516;2023-03-13T06:44:26;98824.09;;;9.71;100.00
19748;BME280;10032;51.386;12.516;2023-03-13T06:46:52;98819.50;;;9.71;100.00
19748;BME280;10032;51.386;12.516;2023-03-13T06:49:17;98809.50;;;9.72;100.00
19748;BME280;10032;51.386;12.516;2023-03-13T06:51:42;98815.72;;;9.72;100.00
19748;BME280;10032;51.386;12.516;2023-03-13T06:54:08;98821.66;;;9.74;100.00
19748;BME280;10032;51.386;12.516;2023-03-13T06:56:33;98830.31;;;9.76;100.00
19748;BME280;10032;51.386;12.516;2023-03-13T06:58:59;98821.66;;;9.79;100.00
19748;BME280;10032;51.386;12.516;2023-03-13T07:01:24;98827.03;;;9.84;100.00
19748;BME280;10032;51.386;12.516;2023-03-13T07:03:49;98828.06;;;9.88;100.00
19748;BME280;10032;51.386;12.516;2023-03-13T07:06:16;98817.78;;;9.95;100.00
19748;BME280;10032;51.386;12.516;2023-03-13T07:08:42;98824.22;;;9.99;100.00
19748;BME280;10032;51.386;12.516;2023-03-13T07:11:10;98828.28;;;10.02;100.00
19748;BME280;10032;51.386;12.516;2023-03-13T07:13:35;98819.66;;;10.00;100.00
19748;BME280;10032;51.386;12.516;2023-03-13T07:16:02;98819.91;;;10.03;100.00
19748;BME280;10032;51.386;12.516;2023-03-13T07:18:28;98825.31;;;10.08;100.00
19748;BME280;10032;51.386;12.516;2023-03-13T07:20:56;98796.38;;;10.09;100.00
19748;BME280;10032;51.386;12.516;2023-03-13T07:23:23;98806.06;;;10.15;100.00
19748;BME280;10032;51.386;12.516;2023-03-13T07:25:57;98796.31;;;10.19;100.00
19748;BME280;10032;51.386;12.516;2023-03-13T07:28:23;98788.16;;;10.24;100.00
19748;BME280;10032;51.386;12.516;2023-03-13T07:30:49;98785.38;;;10.29;100.00
19748;BME280;10032;51.386;12.516;2023-03-13T07:33:15;98770.22;;;10.33;100.00
19748;BME280;10032;51.386;12.516;2023-03-13T07:35:49;98771.50;;;10.40;100.00
19748;BME280;10032;51.386;12.516;2023-03-13T07:38:16;98769.88;;;10.44;100.00
19748;BME280;10032;51.386;12.516;2023-03-13T07:40:53;98783.09;;;10.51;100.00
19748;BME280;10032;51.386;12.516;2023-03-13T07:43:19;98788.16;;;10.57;100.00
19748;BME280;10032;51.386;12.516;2023-03-13T07:46:04;98771.59;;;10.64;100.00
19748;BME280;10032;51.386;12.516;2023-03-13T07:48:33;98765.88;;;10.70;100.00
19748;BME280;10032;51.386;12.516;2023-03-13T07:50:59;98755.50;;;10.77;100.00
19748;BME280;10032;51.386;12.516;2023-03-13T07:53:25;98751.13;;;10.81;100.00
19748;BME280;10032;51.386;12.516;2023-03-13T07:58:21;98751.50;;;10.98;100.00
19748;BME280;10032;51.386;12.516;2023-03-13T08:00:47;98743.84;;;11.05;100.00
19748;BME280;10032;51.386;12.516;2023-03-13T08:03:12;98744.59;;;11.11;100.00
19748;BME280;10032;51.386;12.516;2023-03-13T08:05:38;98742.66;;;11.16;100.00
19748;BME280;10032;51.386;12.516;2023-03-13T08:08:03;98736.88;;;11.23;100.00
19748;BME280;10032;51.386;12.516;2023-03-13T08:10:30;98742.19;;;11.33;100.00
19748;BME280;10032;51.386;12.516;2023-03-13T08:12:55;98752.69;;;11.39;100.00
19748;BME280;10032;51.386;12.516;2023-03-13T08:15:20;98761.81;;;11.48;100.00
19748;BME280;10032;51.386;12.516;2023-03-13T08:17:50;98762.50;;;11.59;100.00
19748;BME280;10032;51.386;12.516;2023-03-13T08:20:16;98758.94;;;11.58;100.00
19748;BME280;10032;51.386;12.516;2023-03-13T08:22:44;98771.16;;;11.61;100.00
19748;BME280;10032;51.386;12.516;2023-03-13T08:25:11;98770.59;;;11.64;100.00
19748;BME280;10032;51.386;12.516;2023-03-13T08:27:36;98766.00;;;11.64;100.00
19748;BME280;10032;51.386;12.516;2023-03-13T08:30:02;98749.09;;;11.67;100.00
19748;BME280;10032;51.386;12.516;2023-03-13T08:32:28;98740.97;;;11.67;100.00
19748;BME280;10032;51.386;12.516;2023-03-13T08:34:53;98737.91;;;11.74;100.00
19748;BME280;10032;51.386;12.516;2023-03-13T08:37:19;98742.22;;;11.75;100.00
19748;BME280;10032;51.386;12.516;2023-03-13T08:39:44;98751.97;;;11.76;100.00
19748;BME280;10032;51.386;12.516;2023-03-13T08:42:11;98748.47;;;11.75;100.00
19748;BME280;10032;51.386;12.516;2023-03-13T08:44:38;98741.44;;;11.74;100.00
19748;BME280;10032;51.386;12.516;2023-03-13T08:47:05;98744.50;;;11.68;100.00
19748;BME280;10032;51.386;12.516;2023-03-13T08:49:31;98754.53;;;11.67;100.00
19748;BME280;10032;51.386;12.516;2023-03-13T08:51:56;98754.53;;;11.67;100.00
19748;BME280;10032;51.386;12.516;2023-03-13T08:54:22;98739.88;;;11.68;100.00
19748;BME280;10032;51.386;12.516;2023-03-13T08:56:47;98733.44;;;11.64;100.00
19748;BME280;10032;51.386;12.516;2023-03-13T08:59:13;98714.94;;;11.66;100.00
19748;BME280;10032;51.386;12.516;2023-03-13T09:01:40;98739.38;;;11.66;100.00
19748;BME280;10032;51.386;12.516;2023-03-13T09:04:06;98737.47;;;11.67;100.00
19748;BME280;10032;51.386;12.516;2023-03-13T09:06:36;98723.84;;;11.72;100.00
19748;BME280;10032;51.386;12.516;2023-03-13T09:09:03;98715.09;;;11.75;100.00
19748;BME280;10032;51.386;12.516;2023-03-13T09:11:29;98718.03;;;11.78;100.00
19748;BME280;10032;51.386;12.516;2023-03-13T09:13:55;98715.59;;;11.77;100.00
19748;BME280;10032;51.386;12.516;2023-03-13T09:16:28;98722.88;;;11.81;100.00
19748;BME280;10032;51.386;12.516;2023-03-13T09:18:55;98727.44;;;11.86;100.00
19748;BME280;10032;51.386;12.516;2023-03-13T09:21:24;98723.31;;;11.88;100.00
19748;BME280;10032;51.386;12.516;2023-03-13T09:23:50;98726.25;;;11.92;100.00
19748;BME280;10032;51.386;12.516;2023-03-13T09:26:17;98722.16;;;11.94;100.00
19748;BME280;10032;51.386;12.516;2023-03-13T09:28:43;98730.75;;;12.01;100.00
19748;BME280;10032;51.386;12.516;2023-03-13T09:31:16;98734.19;;;12.07;100.00
19748;BME280;10032;51.386;12.516;2023-03-13T09:33:43;98741.38;;;12.16;100.00
19748;BME280;10032;51.386;12.516;2023-03-13T09:36:10;98721.69;;;12.24;100.00
19748;BME280;10032;51.386;12.516;2023-03-13T09:38:36;98713.69;;;12.33;100.00
19748;BME280;10032;51.386;12.516;2023-03-13T09:41:28;98711.72;;;12.38;100.00
19748;BME280;10032;51.386;12.516;2023-03-13T09:49:32;98715.00;;;12.67;100.00
19748;BME280;10032;51.386;12.516;2023-03-13T09:52:18;98719.16;;;12.78;100.00
19748;BME280;10032;51.386;12.516;2023-03-13T09:57:33;98748.31;;;12.91;100.00
19748;BME280;10032;51.386;12.516;2023-03-13T10:00:06;98740.09;;;12.96;100.00
19748;BME280;10032;51.386;12.516;2023-03-13T10:02:42;98759.03;;;13.01;100.00
19748;BME280;10032;51.386;12.516;2023-03-13T10:05:24;98759.44;;;13.08;100.00
19748;BME280;10032;51.386;12.516;2023-03-13T10:07:55;98752.88;;;13.09;100.00
19748;BME280;10032;51.386;12.516;2023-03-13T10:10:36;98750.47;;;13.08;100.00
19748;BME280;10032;51.386;12.516;2023-03-13T10:13:14;98748.34;;;13.05;100.00
19748;BME280;10032;51.386;12.516;2023-03-13T10:15:53;98758.94;;;13.06;100.00
19748;BME280;10032;51.386;12.516;2023-03-13T10:18:22;98754.59;;;13.05;100.00
19748;BME280;10032;51.386;12.516;2023-03-13T10:20:53;98753.19;;;13.08;100.00
19748;BME280;10032;51.386;12.516;2023-03-13T10:23:31;98745.84;;;13.08;100.00
19748;BME280;10032;51.386;12.516;2023-03-13T10:25:58;98757.84;;;13.07;100.00
19748;BME280;10032;51.386;12.516;2023-03-13T10:28:24;98754.00;;;13.08;100.00
19748;BME280;10032;51.386;12.516;2023-03-13T10:30:57;98742.31;;;13.08;100.00
19748;BME280;10032;51.386;12.516;2023-03-13T10:33:27;98743.31;;;13.12;100.00
19748;BME280;10032;51.386;12.516;2023-03-13T10:36:03;98745.75;;;13.13;100.00
19748;BME280;10032;51.386;12.516;2023-03-13T10:38:44;98747.94;;;13.11;100.00
19748;BME280;10032;51.386;12.516;2023-03-13T10:41:29;98732.94;;;13.14;100.00
19748;BME280;10032;51.386;12.516;2023-03-13T10:44:04;98739.09;;;13.19;100.00
19748;BME280;10032;51.386;12.516;2023-03-13T10:46:32;98728.63;;;13.26;100.00
19748;BME280;10032;51.386;12.516;2023-03-13T10:49:01;98717.66;;;13.31;100.00
19748;BME280;10032;51.386;12.516;2023-03-13T10:51:37;98715.53;;;13.42;100.00
19748;BME280;10032;51.386;12.516;2023-03-13T10:56:42;98707.75;;;13.62;100.00
19748;BME280;10032;51.386;12.516;2023-03-13T10:59:26;98692.81;;;13.73;100.00
19748;BME280;10032;51.386;12.516;2023-03-13T11:01:55;98690.88;;;13.87;100.00
19748;BME280;10032;51.386;12.516;2023-03-13T11:04:27;98671.28;;;13.99;100.00
19748;BME280;10032;51.386;12.516;2023-03-13T11:07:01;98664.16;;;14.11;100.00
19748;BME280;10032;51.386;12.516;2023-03-13T11:09:26;98669.41;;;14.21;100.00
19748;BME280;10032;51.386;12.516;2023-03-13T11:11:54;98660.69;;;14.33;100.00
19748;BME280;10032;51.386;12.516;2023-03-13T11:14:22;98628.50;;;14.43;100.00
19748;BME280;10032;51.386;12.516;2023-03-13T11:17:33;98631.50;;;14.55;100.00
19748;BME280;10032;51.386;12.516;2023-03-13T11:27:57;98616.28;;;14.93;100.00
19748;BME280;10032;51.386;12.516;2023-03-13T11:30:44;98598.31;;;14.92;100.00
19748;BME280;10032;51.386;12.516;2023-03-13T11:33:28;98605.84;;;14.95;100.00
19748;BME280;10032;51.386;12.516;2023-03-13T11:38:41;98610.88;;;15.10;100.00
19748;BME280;10032;51.386;12.516;2023-03-13T11:46:53;98600.66;;;15.24;100.00
19748;BME280;10032;51.386;12.516;2023-03-13T11:52:05;98602.78;;;15.36;100.00
19748;BME280;10032;51.386;12.516;2023-03-13T11:57:24;98604.25;;;15.50;100.00
19748;BME280;10032;51.386;12.516;2023-03-13T12:00:23;98611.00;;;15.61;100.00
19748;BME280;10032;51.386;12.516;2023-03-13T12:02:58;98604.44;;;15.71;100.00
19748;BME280;10032;51.386;12.516;2023-03-13T12:05:36;98617.28;;;15.79;100.00
19748;BME280;10032;51.386;12.516;2023-03-13T12:08:08;98617.75;;;15.89;100.00
19748;BME280;10032;51.386;12.516;2023-03-13T12:10:42;98635.59;;;16.04;100.00
19748;BME280;10032;51.386;12.516;2023-03-13T12:13:28;98636.56;;;16.08;100.00
19748;BME280;10032;51.386;12.516;2023-03-13T12:15:58;98634.97;;;16.07;100.00
19748;BME280;10032;51.386;12.516;2023-03-13T12:18:37;98623.88;;;16.12;100.00
19748;BME280;10032;51.386;12.516;2023-03-13T12:26:44;98632.22;;;16.15;100.00
19748;BME280;10032;51.386;12.516;2023-03-13T12:31:51;98629.31;;;16.20;100.00
19748;BME280;10032;51.386;12.516;2023-03-13T12:37:22;98629.31;;;16.20;100.00
19748;BME280;10032;51.386;12.516;2023-03-13T12:40:20;98627.22;;;16.17;100.00
19748;BME280;10032;51.386;12.516;2023-03-13T12:43:16;98624.50;;;16.17;100.00
19748;BME280;10032;51.386;12.516;2023-03-13T12:46:00;98611.66;;;16.18;100.00
19748;BME280;10032;51.386;12.516;2023-03-13T12:58:56;98594.38;;;16.60;100.00
19748;BME280;10032;51.386;12.516;2023-03-13T13:01:32;98582.81;;;16.63;100.00
19748;BME280;10032;51.386;12.516;2023-03-13T13:04:01;98577.13;;;16.76;100.00
19748;BME280;10032;51.386;12.516;2023-03-13T13:09:38;98574.16;;;16.90;100.00
19748;BME280;10032;51.386;12.516;2023-03-13T13:12:24;98568.81;;;16.93;100.00
19748;BME280;10032;51.386;12.516;2023-03-13T13:17:42;98560.53;;;17.10;100.00
19748;BME280;10032;51.386;12.516;2023-03-13T13:20:34;98564.25;;;17.06;100.00
19748;BME280;10032;51.386;12.516;2023-03-13T13:23:34;98554.09;;;17.06;100.00
19748;BME280;10032;51.386;12.516;2023-03-13T13:36:53;98540.09;;;17.08;100.00
19748;BME280;10032;51.386;12.516;2023-03-13T13:42:37;98535.19;;;17.22;100.00
19748;BME280;10032;51.386;12.516;2023-03-13T13:47:46;98527.75;;;17.22;100.00
19748;BME280;10032;51.386;12.516;2023-03-13T13:50:27;98516.34;;;17.20;100.00
19748;BME280;10032;51.386;12.516;2023-03-13T13:53:32;98516.66;;;17.19;100.00
19748;BME280;10032;51.386;12.516;2023-03-13T13:55:59;98513.94;;;17.19;100.00
19748;BME280;10032;51.386;12.516;2023-03-13T13:58:29;98508.31;;;17.15;100.00
19748;BME280;10032;51.386;12.516;2023-03-13T14:01:04;98505.78;;;17.10;100.00
19748;BME280;10032;51.386;12.516;2023-03-13T14:03:38;98516.59;;;17.07;100.00
19748;BME280;10032;51.386;12.516;2023-03-13T14:06:28;98514.63;;;17.07;100.00
19748;BME280;10032;51.386;12.516;2023-03-13T14:09:10;98505.47;;;17.12;100.00
19748;BME280;10032;51.386;12.516;2023-03-13T14:11:38;98505.13;;;17.13;100.00
19748;BME280;10032;51.386;12.516;2023-03-13T14:14:20;98504.94;;;17.18;100.00
19748;BME280;10032;51.386;12.516;2023-03-13T14:16:48;98509.53;;;17.26;100.00
19748;BME280;10032;51.386;12.516;2023-03-13T14:19:27;98498.53;;;17.35;100.00
19748;BME280;10032;51.386;12.516;2023-03-13T14:22:12;98492.81;;;17.48;100.00